Wetterdaten: Woche 09.10.06 - 15.10.06 (KW41)
Datum Zeit Temperatur Luftfeuchte Luftdruck Niederschlag Wind Richtung Sonnenschein UV-Strahlung Solar Taupunkt Windchill Windben
09.10.2006 00:00 7.4 C 99 % 1022.2 hPa 0.0 l/m 1.3 km/h (1 Bft) O-SO 0.00 h 0.0 UV-I 0 W/m 7.2 C 7.4 C 2.5 km/h (1 Bft)
09.10.2006 01:00 6.8 C 99 % 1022.2 hPa 0.0 l/m 0.3 km/h (0 Bft) O-SO 0.00 h 0.0 UV-I 0 W/m 6.7 C 6.8 C 1.0 km/h (0 Bft)
09.10.2006 02:00 6.8 C 100 % 1022.2 hPa 0.0 l/m 0.9 km/h (0 Bft) O-SO 0.00 h 0.0 UV-I 0 W/m 6.7 C 6.8 C 1.7 km/h (1 Bft)
09.10.2006 03:00 7.3 C 100 % 1022.2 hPa 0.0 l/m 0.3 km/h (0 Bft) O-SO 0.00 h 0.0 UV-I 0 W/m 7.2 C 7.3 C 1.0 km/h (0 Bft)
09.10.2006 04:00 7.3 C 99 % 1022.1 hPa 0.0 l/m 1.8 km/h (1 Bft) O-SO 0.00 h 0.0 UV-I 0 W/m 7.2 C 7.3 C 3.0 km/h (1 Bft)
09.10.2006 05:00 7.1 C 100 % 1022.1 hPa 0.2 l/m 4.3 km/h (1 Bft) O-SO 0.00 h 0.0 UV-I 0 W/m 7.1 C 6.7 C 5.8 km/h (2 Bft)
09.10.2006 06:00 7.3 C 100 % 1022.4 hPa 0.0 l/m 2.1 km/h (1 Bft) O-SO 0.00 h 0.0 UV-I 0 W/m 7.3 C 7.2 C 3.4 km/h (1 Bft)
09.10.2006 07:00 7.4 C 100 % 1022.6 hPa 0.0 l/m 1.5 km/h (1 Bft) O-SO 0.00 h 0.0 UV-I 6 W/m 7.4 C 7.4 C 3.1 km/h (1 Bft)
09.10.2006 08:00 7.4 C 100 % 1023.1 hPa 0.0 l/m 0.4 km/h (0 Bft) O 0.00 h 0.0 UV-I 21 W/m 7.4 C 7.4 C 1.4 km/h (1 Bft)
09.10.2006 09:00 7.6 C 100 % 1023.6 hPa 0.0 l/m 0.7 km/h (0 Bft) W-SW 0.00 h 0.5 UV-I 59 W/m 7.6 C 7.6 C 2.0 km/h (1 Bft)
09.10.2006 10:00 9.0 C 99 % 1023.7 hPa 0.0 l/m 0.5 km/h (0 Bft) W-NW 0.12 h 1.0 UV-I 161 W/m 8.9 C 9.0 C 1.7 km/h (1 Bft)
09.10.2006 11:00 11.5 C 90 % 1023.5 hPa 0.0 l/m 2.2 km/h (1 Bft) W-NW 0.87 h 2.4 UV-I 374 W/m 9.8 C 11.5 C 4.6 km/h (1 Bft)
09.10.2006 12:00 12.8 C 85 % 1023.3 hPa 0.0 l/m 2.2 km/h (1 Bft) NW 1.00 h 3.5 UV-I 487 W/m 10.3 C 12.8 C 4.3 km/h (1 Bft)
09.10.2006 13:00 14.7 C 80 % 1022.7 hPa 0.0 l/m 2.3 km/h (1 Bft) W-NW 1.00 h 3.6 UV-I 482 W/m 11.3 C 14.7 C 4.4 km/h (1 Bft)
09.10.2006 14:00 17.2 C 74 % 1021.8 hPa 0.0 l/m 1.7 km/h (1 Bft) W-NW 0.73 h 2.8 UV-I 369 W/m 12.6 C 17.2 C 3.9 km/h (1 Bft)
09.10.2006 15:00 19.1 C 66 % 1021.2 hPa 0.0 l/m 2.9 km/h (1 Bft) S-SO 0.92 h 1.9 UV-I 315 W/m 12.6 C 19.1 C 5.9 km/h (2 Bft)
09.10.2006 16:00 19.3 C 62 % 1020.9 hPa 0.0 l/m 3.2 km/h (1 Bft) S-SO 0.88 h 1.3 UV-I 248 W/m 12.0 C 19.3 C 6.0 km/h (2 Bft)
09.10.2006 17:00 18.8 C 66 % 1020.8 hPa 0.0 l/m 1.5 km/h (1 Bft) S-SO 0.50 h 0.7 UV-I 129 W/m 12.3 C 18.8 C 3.7 km/h (1 Bft)
09.10.2006 18:00 16.6 C 77 % 1021.3 hPa 0.0 l/m 2.9 km/h (1 Bft) SO 0.05 h 0.0 UV-I 26 W/m 12.5 C 16.6 C 4.0 km/h (1 Bft)
09.10.2006 19:00 14.1 C 88 % 1021.8 hPa 0.0 l/m 3.2 km/h (1 Bft) O-SO 0.00 h 0.0 UV-I 0 W/m 12.1 C 14.1 C 4.4 km/h (1 Bft)
09.10.2006 20:00 12.6 C 92 % 1022.2 hPa 0.0 l/m 2.2 km/h (1 Bft) O 0.00 h 0.0 UV-I 0 W/m 11.4 C 12.6 C 3.1 km/h (1 Bft)
09.10.2006 21:00 11.6 C 95 % 1022.4 hPa 0.0 l/m 0.6 km/h (0 Bft) O 0.00 h 0.0 UV-I 0 W/m 10.9 C 11.6 C 1.5 km/h (1 Bft)
09.10.2006 22:00 10.9 C 97 % 1022.7 hPa 0.0 l/m 0.3 km/h (0 Bft) O 0.00 h 0.0 UV-I 0 W/m 10.5 C 10.9 C 1.0 km/h (0 Bft)
09.10.2006 23:00 10.3 C 98 % 1022.7 hPa 0.0 l/m 0.9 km/h (0 Bft) O 0.00 h 0.0 UV-I 0 W/m 10.0 C 10.3 C 1.7 km/h (1 Bft)
10.10.2006 00:00 9.7 C 99 % 1022.6 hPa 0.0 l/m 0.4 km/h (0 Bft) O 0.00 h 0.0 UV-I 0 W/m 9.5 C 9.7 C 1.2 km/h (1 Bft)
10.10.2006 01:00 9.6 C 100 % 1022.4 hPa 0.0 l/m 0.5 km/h (0 Bft) O 0.00 h 0.0 UV-I 0 W/m 9.5 C 9.6 C 1.0 km/h (0 Bft)
10.10.2006 02:00 9.5 C 100 % 1022.3 hPa 0.0 l/m 0.4 km/h (0 Bft) O 0.00 h 0.0 UV-I 0 W/m 9.5 C 9.5 C 1.3 km/h (1 Bft)
10.10.2006 03:00 9.3 C 100 % 1022.1 hPa 0.0 l/m 1.0 km/h (0 Bft) O 0.00 h 0.0 UV-I 0 W/m 9.3 C 9.3 C 1.9 km/h (1 Bft)
10.10.2006 04:00 9.2 C 100 % 1021.8 hPa 0.0 l/m 0.8 km/h (0 Bft) O 0.00 h 0.0 UV-I 0 W/m 9.2 C 9.2 C 1.7 km/h (1 Bft)
10.10.2006 05:00 9.3 C 100 % 1022.0 hPa 0.0 l/m 1.1 km/h (1 Bft) O 0.00 h 0.0 UV-I 0 W/m 9.3 C 9.3 C 2.7 km/h (1 Bft)
10.10.2006 06:00 9.1 C 100 % 1022.2 hPa 0.0 l/m 0.9 km/h (0 Bft) O 0.00 h 0.0 UV-I 0 W/m 9.1 C 9.1 C 2.3 km/h (1 Bft)
10.10.2006 07:00 9.0 C 100 % 1022.4 hPa 0.0 l/m 1.4 km/h (1 Bft) O-SO 0.00 h 0.0 UV-I 8 W/m 9.0 C 9.0 C 2.9 km/h (1 Bft)
10.10.2006 08:00 9.1 C 100 % 1022.8 hPa 0.0 l/m 0.1 km/h (0 Bft) O-SO 0.00 h 0.0 UV-I 30 W/m 9.1 C 9.1 C 0.7 km/h (0 Bft)
10.10.2006 09:00 9.6 C 100 % 1022.8 hPa 0.0 l/m 0.3 km/h (0 Bft) O-SO 0.00 h 0.6 UV-I 81 W/m 9.6 C 9.6 C 1.2 km/h (1 Bft)
10.10.2006 10:00 10.3 C 100 % 1022.8 hPa 0.0 l/m 0.5 km/h (0 Bft) O-SO 0.00 h 1.1 UV-I 153 W/m 10.3 C 10.3 C 1.7 km/h (1 Bft)
10.10.2006 11:00 11.6 C 99 % 1022.3 hPa 0.0 l/m 0.4 km/h (0 Bft) S-SW 0.05 h 1.8 UV-I 211 W/m 11.4 C 11.6 C 2.0 km/h (1 Bft)
10.10.2006 12:00 13.2 C 93 % 1021.8 hPa 0.0 l/m 1.3 km/h (1 Bft) W-SW 0.58 h 2.9 UV-I 340 W/m 12.1 C 13.2 C 3.4 km/h (1 Bft)
10.10.2006 13:00 16.1 C 82 % 1020.7 hPa 0.0 l/m 1.7 km/h (1 Bft) W-NW 0.90 h 3.3 UV-I 440 W/m 13.0 C 16.1 C 3.7 km/h (1 Bft)
10.10.2006 14:00 17.3 C 79 % 1019.9 hPa 0.0 l/m 2.8 km/h (1 Bft) W-NW 0.90 h 2.8 UV-I 396 W/m 13.5 C 17.3 C 4.7 km/h (1 Bft)
10.10.2006 15:00 18.3 C 73 % 1019.1 hPa 0.0 l/m 2.7 km/h (1 Bft) N-NW 1.00 h 2.1 UV-I 317 W/m 13.3 C 18.3 C 4.3 km/h (1 Bft)
10.10.2006 16:00 18.5 C 73 % 1018.7 hPa 0.0 l/m 1.7 km/h (1 Bft) N-NW 0.30 h 1.2 UV-I 185 W/m 13.6 C 18.5 C 3.3 km/h (1 Bft)
10.10.2006 17:00 17.8 C 76 % 1018.5 hPa 0.0 l/m 0.3 km/h (0 Bft) N-NW 0.00 h 0.6 UV-I 83 W/m 13.6 C 17.8 C 1.1 km/h (1 Bft)
10.10.2006 18:00 16.4 C 87 % 1018.5 hPa 0.0 l/m 0.1 km/h (0 Bft) N-NW 0.02 h 0.0 UV-I 25 W/m 14.1 C 16.4 C 0.2 km/h (0 Bft)
10.10.2006 19:00 14.2 C 94 % 1018.7 hPa 0.0 l/m 1.1 km/h (1 Bft) NO 0.00 h 0.0 UV-I 0 W/m 13.3 C 14.2 C 1.9 km/h (1 Bft)
10.10.2006 20:00 12.8 C 97 % 1019.0 hPa 0.0 l/m 1.3 km/h (1 Bft) O 0.00 h 0.0 UV-I 0 W/m 12.3 C 12.8 C 2.3 km/h (1 Bft)
10.10.2006 21:00 11.9 C 98 % 1019.1 hPa 0.0 l/m 0.7 km/h (0 Bft) O 0.00 h 0.0 UV-I 0 W/m 11.7 C 11.9 C 1.8 km/h (1 Bft)
10.10.2006 22:00 11.2 C 99 % 1019.0 hPa 0.0 l/m 0.8 km/h (0 Bft) O 0.00 h 0.0 UV-I 0 W/m 11.1 C 11.2 C 1.7 km/h (1 Bft)
10.10.2006 23:00 10.6 C 100 % 1018.8 hPa 0.0 l/m 0.8 km/h (0 Bft) O 0.00 h 0.0 UV-I 0 W/m 10.6 C 10.6 C 1.3 km/h (1 Bft)
11.10.2006 00:00 10.7 C 100 % 1018.5 hPa 0.0 l/m 0.4 km/h (0 Bft) O 0.00 h 0.0 UV-I 0 W/m 10.7 C 10.7 C 1.3 km/h (1 Bft)
11.10.2006 01:00 10.6 C 100 % 1018.1 hPa 0.2 l/m 0.5 km/h (0 Bft) O 0.00 h 0.0 UV-I 0 W/m 10.6 C 10.6 C 1.1 km/h (1 Bft)
11.10.2006 02:00 10.4 C 100 % 1017.9 hPa 0.0 l/m 1.7 km/h (1 Bft) O-SO 0.00 h 0.0 UV-I 0 W/m 10.4 C 10.4 C 3.1 km/h (1 Bft)
11.10.2006 03:00 10.3 C 100 % 1017.5 hPa 0.0 l/m 2.3 km/h (1 Bft) O-SO 0.00 h 0.0 UV-I 0 W/m 10.3 C 10.3 C 4.0 km/h (1 Bft)
11.10.2006 04:00 10.3 C 100 % 1017.1 hPa 0.0 l/m 1.4 km/h (1 Bft) O-SO 0.00 h 0.0 UV-I 0 W/m 10.3 C 10.3 C 2.9 km/h (1 Bft)
11.10.2006 05:00 10.5 C 100 % 1016.9 hPa 0.0 l/m 1.3 km/h (1 Bft) O-SO 0.00 h 0.0 UV-I 0 W/m 10.5 C 10.5 C 2.9 km/h (1 Bft)
11.10.2006 06:00 10.7 C 100 % 1016.9 hPa 0.0 l/m 0.8 km/h (0 Bft) O-SO 0.00 h 0.0 UV-I 0 W/m 10.7 C 10.7 C 2.0 km/h (1 Bft)
11.10.2006 07:00 10.4 C 100 % 1016.7 hPa 0.0 l/m 0.1 km/h (0 Bft) SO 0.00 h 0.0 UV-I 5 W/m 10.4 C 10.4 C 0.6 km/h (0 Bft)
11.10.2006 08:00 10.2 C 100 % 1016.8 hPa 0.0 l/m 0.8 km/h (0 Bft) W-SW 0.00 h 0.0 UV-I 18 W/m 10.2 C 10.2 C 2.1 km/h (1 Bft)
11.10.2006 09:00 10.0 C 100 % 1017.0 hPa 0.0 l/m 0.6 km/h (0 Bft) W 0.00 h 0.5 UV-I 50 W/m 10.0 C 10.0 C 2.2 km/h (1 Bft)
11.10.2006 10:00 10.7 C 100 % 1016.8 hPa 0.0 l/m 0.5 km/h (0 Bft) W-NW 0.00 h 0.8 UV-I 101 W/m 10.7 C 10.7 C 1.3 km/h (1 Bft)
11.10.2006 11:00 11.6 C 100 % 1016.6 hPa 0.0 l/m 0.9 km/h (0 Bft) NO 0.00 h 1.2 UV-I 154 W/m 11.6 C 11.6 C 2.5 km/h (1 Bft)
11.10.2006 12:00 12.3 C 99 % 1016.2 hPa 0.0 l/m 0.6 km/h (0 Bft) O 0.00 h 1.3 UV-I 149 W/m 12.1 C 12.3 C 1.7 km/h (1 Bft)
11.10.2006 13:00 13.4 C 94 % 1015.8 hPa 0.0 l/m 0.9 km/h (0 Bft) S-SO 0.00 h 1.8 UV-I 213 W/m 12.4 C 13.4 C 2.3 km/h (1 Bft)
11.10.2006 14:00 14.8 C 88 % 1015.2 hPa 0.0 l/m 0.9 km/h (0 Bft) W 0.33 h 2.1 UV-I 282 W/m 12.8 C 14.8 C 2.1 km/h (1 Bft)
11.10.2006 15:00 15.9 C 84 % 1014.7 hPa 0.0 l/m 1.0 km/h (0 Bft) W-NW 0.18 h 1.6 UV-I 235 W/m 13.2 C 15.9 C 2.6 km/h (1 Bft)
11.10.2006 16:00 16.2 C 85 % 1014.4 hPa 0.0 l/m 0.8 km/h (0 Bft) NW 0.35 h 1.0 UV-I 194 W/m 13.6 C 16.2 C 2.4 km/h (1 Bft)
11.10.2006 17:00 16.1 C 88 % 1014.3 hPa 0.0 l/m 0.5 km/h (0 Bft) NW 0.43 h 0.6 UV-I 116 W/m 14.1 C 16.1 C 1.9 km/h (1 Bft)
11.10.2006 18:00 14.7 C 92 % 1014.7 hPa 0.0 l/m 0.0 km/h (0 Bft) N 0.07 h 0.0 UV-I 26 W/m 13.5 C 14.7 C 0.0 km/h (0 Bft)
11.10.2006 19:00 13.5 C 97 % 1015.3 hPa 0.0 l/m 0.0 km/h (0 Bft) N 0.00 h 0.0 UV-I 0 W/m 13.0 C 13.5 C 0.0 km/h (0 Bft)
11.10.2006 20:00 12.8 C 99 % 1015.6 hPa 0.0 l/m 1.0 km/h (0 Bft) O 0.00 h 0.0 UV-I 0 W/m 12.6 C 12.8 C 1.5 km/h (1 Bft)
11.10.2006 21:00 12.3 C 99 % 1015.7 hPa 0.0 l/m 0.0 km/h (0 Bft) N 0.00 h 0.0 UV-I 0 W/m 12.1 C 12.3 C 0.0 km/h (0 Bft)
11.10.2006 22:00 11.8 C 100 % 1016.0 hPa 0.0 l/m 0.1 km/h (0 Bft) O-SO 0.00 h 0.0 UV-I 0 W/m 11.8 C 11.8 C 0.4 km/h (0 Bft)
11.10.2006 23:00 11.9 C 100 % 1016.2 hPa 0.0 l/m 0.7 km/h (0 Bft) O-SO 0.00 h 0.0 UV-I 0 W/m 11.9 C 11.9 C 1.2 km/h (1 Bft)
12.10.2006 00:00 11.9 C 100 % 1016.5 hPa 0.0 l/m 0.1 km/h (0 Bft) O-SO 0.00 h 0.0 UV-I 0 W/m 11.9 C 11.9 C 0.2 km/h (0 Bft)
12.10.2006 01:00 11.8 C 100 % 1016.5 hPa 0.2 l/m 0.5 km/h (0 Bft) SO 0.00 h 0.0 UV-I 0 W/m 11.8 C 11.8 C 1.3 km/h (1 Bft)
12.10.2006 02:00 11.7 C 100 % 1016.8 hPa 0.0 l/m 0.4 km/h (0 Bft) W-NW 0.00 h 0.0 UV-I 0 W/m 11.7 C 11.7 C 0.9 km/h (0 Bft)
12.10.2006 03:00 11.7 C 100 % 1016.9 hPa 0.0 l/m 0.0 km/h (0 Bft) N 0.00 h 0.0 UV-I 0 W/m 11.7 C 11.7 C 0.0 km/h (0 Bft)
12.10.2006 04:00 11.5 C 100 % 1016.9 hPa 0.0 l/m 0.2 km/h (0 Bft) N 0.00 h 0.0 UV-I 0 W/m 11.5 C 11.5 C 0.9 km/h (0 Bft)
12.10.2006 05:00 11.6 C 100 % 1017.5 hPa 0.0 l/m 0.5 km/h (0 Bft) O-NO 0.00 h 0.0 UV-I 0 W/m 11.6 C 11.6 C 1.3 km/h (1 Bft)
12.10.2006 06:00 11.6 C 100 % 1018.3 hPa 0.0 l/m 0.1 km/h (0 Bft) O-SO 0.00 h 0.0 UV-I 0 W/m 11.6 C 11.6 C 0.6 km/h (0 Bft)
12.10.2006 07:00 11.5 C 100 % 1019.1 hPa 0.0 l/m 0.9 km/h (0 Bft) O-SO 0.00 h 0.0 UV-I 0 W/m 11.5 C 11.5 C 1.8 km/h (1 Bft)
12.10.2006 08:00 11.7 C 100 % 1019.9 hPa 0.0 l/m 0.3 km/h (0 Bft) O-SO 0.00 h 0.0 UV-I 13 W/m 11.7 C 11.7 C 0.9 km/h (0 Bft)
12.10.2006 09:00 11.8 C 100 % 1020.6 hPa 0.0 l/m 0.4 km/h (0 Bft) W-NW 0.00 h 0.5 UV-I 41 W/m 11.8 C 11.8 C 1.3 km/h (1 Bft)
12.10.2006 10:00 12.0 C 100 % 1021.1 hPa 0.0 l/m 0.4 km/h (0 Bft) W-NW 0.00 h 0.6 UV-I 75 W/m 12.0 C 12.0 C 1.3 km/h (1 Bft)
12.10.2006 11:00 13.1 C 97 % 1021.9 hPa 0.0 l/m 0.4 km/h (0 Bft) W-NW 0.17 h 1.5 UV-I 226 W/m 12.7 C 13.1 C 1.5 km/h (1 Bft)
12.10.2006 12:00 14.9 C 87 % 1022.0 hPa 0.0 l/m 1.5 km/h (1 Bft) W 0.85 h 2.6 UV-I 385 W/m 12.8 C 14.9 C 3.2 km/h (1 Bft)
12.10.2006 13:00 16.6 C 83 % 1021.9 hPa 0.0 l/m 2.3 km/h (1 Bft) NW 1.00 h 2.9 UV-I 481 W/m 13.6 C 16.6 C 4.2 km/h (1 Bft)
12.10.2006 14:00 18.5 C 76 % 1021.5 hPa 0.0 l/m 2.6 km/h (1 Bft) W-NW 1.00 h 2.5 UV-I 461 W/m 14.3 C 18.5 C 4.6 km/h (1 Bft)
12.10.2006 15:00 19.5 C 73 % 1021.4 hPa 0.0 l/m 2.6 km/h (1 Bft) NW 1.00 h 1.7 UV-I 341 W/m 14.6 C 19.5 C 4.7 km/h (1 Bft)
12.10.2006 16:00 20.0 C 69 % 1021.5 hPa 0.0 l/m 1.9 km/h (1 Bft) NW 1.00 h 1.1 UV-I 239 W/m 14.2 C 20.0 C 3.7 km/h (1 Bft)
12.10.2006 17:00 19.4 C 72 % 1022.0 hPa 0.0 l/m 0.6 km/h (0 Bft) NW 0.43 h 0.6 UV-I 105 W/m 14.3 C 19.4 C 1.7 km/h (1 Bft)
12.10.2006 18:00 17.2 C 86 % 1022.6 hPa 0.0 l/m 0.0 km/h (0 Bft) NW 0.07 h 0.0 UV-I 23 W/m 14.8 C 17.2 C 0.2 km/h (0 Bft)
12.10.2006 19:00 15.0 C 93 % 1023.5 hPa 0.0 l/m 1.2 km/h (1 Bft) O-NO 0.00 h 0.0 UV-I 0 W/m 13.9 C 15.0 C 2.7 km/h (1 Bft)
12.10.2006 20:00 13.7 C 96 % 1024.4 hPa 0.0 l/m 0.8 km/h (0 Bft) O 0.00 h 0.0 UV-I 0 W/m 13.1 C 13.7 C 1.8 km/h (1 Bft)
12.10.2006 21:00 12.7 C 98 % 1025.1 hPa 0.0 l/m 0.6 km/h (0 Bft) O 0.00 h 0.0 UV-I 0 W/m 12.4 C 12.7 C 1.5 km/h (1 Bft)
12.10.2006 22:00 12.2 C 99 % 1025.7 hPa 0.0 l/m 1.0 km/h (0 Bft) O 0.00 h 0.0 UV-I 0 W/m 12.0 C 12.2 C 2.1 km/h (1 Bft)
12.10.2006 23:00 11.9 C 99 % 1026.0 hPa 0.0 l/m 1.0 km/h (0 Bft) O-SO 0.00 h 0.0 UV-I 0 W/m 11.7 C 11.9 C 2.1 km/h (1 Bft)
13.10.2006 00:00 11.2 C 100 % 1026.2 hPa 0.0 l/m 0.2 km/h (0 Bft) O-SO 0.00 h 0.0 UV-I 0 W/m 11.2 C 11.2 C 0.6 km/h (0 Bft)
13.10.2006 01:00 10.9 C 100 % 1026.2 hPa 0.0 l/m 0.4 km/h (0 Bft) O-SO 0.00 h 0.0 UV-I 0 W/m 10.9 C 10.9 C 1.0 km/h (0 Bft)
13.10.2006 02:00 10.5 C 100 % 1026.4 hPa 0.0 l/m 0.3 km/h (0 Bft) O-SO 0.00 h 0.0 UV-I 0 W/m 10.5 C 10.5 C 0.5 km/h (0 Bft)
13.10.2006 03:00 10.8 C 100 % 1026.4 hPa 0.0 l/m 0.2 km/h (0 Bft) O-SO 0.00 h 0.0 UV-I 0 W/m 10.8 C 10.8 C 0.7 km/h (0 Bft)
13.10.2006 04:00 11.1 C 100 % 1026.2 hPa 0.0 l/m 0.4 km/h (0 Bft) NO 0.00 h 0.0 UV-I 0 W/m 11.1 C 11.1 C 1.3 km/h (1 Bft)
13.10.2006 05:00 11.1 C 100 % 1026.3 hPa 0.2 l/m 0.1 km/h (0 Bft) N 0.00 h 0.0 UV-I 0 W/m 11.1 C 11.1 C 0.6 km/h (0 Bft)
13.10.2006 06:00 10.6 C 100 % 1026.6 hPa 0.0 l/m 0.5 km/h (0 Bft) O-SO 0.00 h 0.0 UV-I 0 W/m 10.6 C 10.6 C 1.2 km/h (1 Bft)
13.10.2006 07:00 10.7 C 100 % 1026.9 hPa 0.0 l/m 0.0 km/h (0 Bft) N 0.00 h 0.0 UV-I 5 W/m 10.7 C 10.7 C 0.2 km/h (0 Bft)
13.10.2006 08:00 11.0 C 100 % 1027.4 hPa 0.0 l/m 0.1 km/h (0 Bft) O 0.00 h 0.0 UV-I 17 W/m 11.0 C 11.0 C 0.9 km/h (0 Bft)
13.10.2006 09:00 11.2 C 100 % 1027.8 hPa 0.0 l/m 0.5 km/h (0 Bft) O 0.00 h 0.6 UV-I 56 W/m 11.2 C 11.2 C 1.9 km/h (1 Bft)
13.10.2006 10:00 11.9 C 100 % 1027.8 hPa 0.0 l/m 0.6 km/h (0 Bft) W-SW 0.00 h 0.9 UV-I 127 W/m 11.9 C 11.9 C 1.8 km/h (1 Bft)
13.10.2006 11:00 13.9 C 97 % 1027.5 hPa 0.0 l/m 1.2 km/h (1 Bft) O-SO 0.30 h 1.7 UV-I 236 W/m 13.4 C 13.9 C 2.5 km/h (1 Bft)
13.10.2006 12:00 16.6 C 85 % 1026.9 hPa 0.0 l/m 7.6 km/h (2 Bft) O-SO 1.00 h 2.7 UV-I 429 W/m 14.0 C 16.6 C 11.7 km/h (2 Bft)
13.10.2006 13:00 18.4 C 78 % 1026.3 hPa 0.0 l/m 6.7 km/h (2 Bft) O-SO 1.00 h 2.9 UV-I 472 W/m 14.6 C 18.4 C 9.9 km/h (2 Bft)
13.10.2006 14:00 19.5 C 75 % 1025.6 hPa 0.0 l/m 4.6 km/h (1 Bft) O-SO 0.90 h 2.4 UV-I 438 W/m 14.9 C 19.5 C 7.8 km/h (2 Bft)
13.10.2006 15:00 19.8 C 74 % 1025.2 hPa 0.0 l/m 3.5 km/h (1 Bft) O-SO 0.52 h 1.5 UV-I 282 W/m 14.9 C 19.8 C 6.1 km/h (2 Bft)
13.10.2006 16:00 19.6 C 74 % 1025.1 hPa 0.0 l/m 2.0 km/h (1 Bft) O 0.07 h 0.8 UV-I 129 W/m 14.7 C 19.6 C 4.5 km/h (1 Bft)
13.10.2006 17:00 19.0 C 76 % 1025.3 hPa 0.0 l/m 1.6 km/h (1 Bft) N-NO 0.05 h 0.5 UV-I 59 W/m 14.6 C 19.0 C 3.9 km/h (1 Bft)
13.10.2006 18:00 18.1 C 80 % 1025.4 hPa 0.0 l/m 0.5 km/h (0 Bft) NO 0.00 h 0.0 UV-I 12 W/m 14.6 C 18.1 C 2.0 km/h (1 Bft)
13.10.2006 19:00 16.4 C 88 % 1025.7 hPa 0.0 l/m 1.5 km/h (1 Bft) O 0.00 h 0.0 UV-I 0 W/m 14.4 C 16.4 C 3.1 km/h (1 Bft)
13.10.2006 20:00 15.9 C 89 % 1026.0 hPa 0.0 l/m 0.4 km/h (0 Bft) O-NO 0.00 h 0.0 UV-I 0 W/m 14.1 C 15.9 C 1.5 km/h (1 Bft)
13.10.2006 21:00 15.8 C 87 % 1026.0 hPa 0.0 l/m 0.3 km/h (0 Bft) O-NO 0.00 h 0.0 UV-I 0 W/m 13.7 C 15.8 C 1.5 km/h (1 Bft)
13.10.2006 22:00 15.3 C 88 % 1026.1 hPa 0.0 l/m 0.2 km/h (0 Bft) O 0.00 h 0.0 UV-I 0 W/m 13.3 C 15.3 C 1.1 km/h (1 Bft)
13.10.2006 23:00 15.7 C 84 % 1025.9 hPa 0.0 l/m 1.6 km/h (1 Bft) O 0.00 h 0.0 UV-I 0 W/m 13.0 C 15.7 C 3.8 km/h (1 Bft)
14.10.2006 00:00 15.4 C 85 % 1025.5 hPa 0.0 l/m 2.2 km/h (1 Bft) N-NO 0.00 h 0.0 UV-I 0 W/m 12.9 C 15.4 C 5.0 km/h (1 Bft)
14.10.2006 01:00 15.0 C 86 % 1025.1 hPa 0.0 l/m 2.6 km/h (1 Bft) NO 0.00 h 0.0 UV-I 0 W/m 12.7 C 15.0 C 5.8 km/h (2 Bft)
14.10.2006 02:00 14.6 C 87 % 1024.9 hPa 0.0 l/m 1.1 km/h (0 Bft) NO 0.00 h 0.0 UV-I 0 W/m 12.5 C 14.6 C 2.9 km/h (1 Bft)
14.10.2006 03:00 15.0 C 85 % 1024.7 hPa 0.0 l/m 1.1 km/h (1 Bft) N-NO 0.00 h 0.0 UV-I 0 W/m 12.5 C 15.0 C 3.2 km/h (1 Bft)
14.10.2006 04:00 14.7 C 85 % 1024.4 hPa 0.0 l/m 1.6 km/h (1 Bft) N-NO 0.00 h 0.0 UV-I 0 W/m 12.2 C 14.7 C 3.9 km/h (1 Bft)
14.10.2006 05:00 14.4 C 85 % 1024.0 hPa 0.0 l/m 1.8 km/h (1 Bft) NO 0.00 h 0.0 UV-I 0 W/m 11.8 C 14.4 C 4.6 km/h (1 Bft)
14.10.2006 06:00 14.1 C 85 % 1024.1 hPa 0.0 l/m 0.9 km/h (0 Bft) O 0.00 h 0.0 UV-I 0 W/m 11.6 C 14.1 C 2.9 km/h (1 Bft)
14.10.2006 07:00 14.1 C 85 % 1024.3 hPa 0.0 l/m 1.5 km/h (1 Bft) O 0.00 h 0.0 UV-I 0 W/m 11.7 C 14.1 C 4.1 km/h (1 Bft)
14.10.2006 08:00 14.1 C 86 % 1024.5 hPa 0.0 l/m 1.7 km/h (1 Bft) NO 0.00 h 0.0 UV-I 11 W/m 11.7 C 14.1 C 4.1 km/h (1 Bft)
14.10.2006 09:00 14.2 C 85 % 1024.8 hPa 0.0 l/m 0.4 km/h (0 Bft) O-NO 0.00 h 0.6 UV-I 56 W/m 11.8 C 14.2 C 1.7 km/h (1 Bft)
14.10.2006 10:00 15.1 C 84 % 1024.8 hPa 0.0 l/m 1.2 km/h (1 Bft) N-NO 0.00 h 1.0 UV-I 136 W/m 12.3 C 15.1 C 3.0 km/h (1 Bft)
14.10.2006 11:00 15.7 C 81 % 1024.5 hPa 0.0 l/m 2.7 km/h (1 Bft) O 0.00 h 1.0 UV-I 149 W/m 12.5 C 15.7 C 6.0 km/h (2 Bft)
14.10.2006 12:00 16.4 C 79 % 1023.9 hPa 0.0 l/m 3.9 km/h (1 Bft) O-SO 0.18 h 1.6 UV-I 228 W/m 12.7 C 16.4 C 8.4 km/h (2 Bft)
14.10.2006 13:00 16.6 C 78 % 1023.4 hPa 0.0 l/m 8.1 km/h (2 Bft) O-SO 0.00 h 1.5 UV-I 212 W/m 12.8 C 16.6 C 12.1 km/h (2 Bft)
14.10.2006 14:00 16.0 C 80 % 1023.3 hPa 0.0 l/m 3.8 km/h (1 Bft) N-NO 0.00 h 0.7 UV-I 73 W/m 12.5 C 16.0 C 8.0 km/h (2 Bft)
14.10.2006 15:00 15.5 C 80 % 1023.3 hPa 0.0 l/m 3.1 km/h (1 Bft) O-SO 0.00 h 0.7 UV-I 96 W/m 12.0 C 15.5 C 6.1 km/h (2 Bft)
14.10.2006 16:00 15.4 C 78 % 1023.3 hPa 0.0 l/m 4.8 km/h (1 Bft) O-SO 0.00 h 0.6 UV-I 93 W/m 11.6 C 15.4 C 9.5 km/h (2 Bft)
14.10.2006 17:00 14.9 C 81 % 1023.4 hPa 0.0 l/m 3.1 km/h (1 Bft) N-NO 0.00 h 0.5 UV-I 59 W/m 11.5 C 14.9 C 7.0 km/h (2 Bft)
14.10.2006 18:00 14.4 C 83 % 1023.4 hPa 0.0 l/m 4.5 km/h (1 Bft) N-NO 0.00 h 0.0 UV-I 14 W/m 11.5 C 14.4 C 9.0 km/h (2 Bft)
14.10.2006 19:00 14.3 C 82 % 1023.5 hPa 0.0 l/m 1.9 km/h (1 Bft) NO 0.00 h 0.0 UV-I 0 W/m 11.3 C 14.3 C 4.4 km/h (1 Bft)
14.10.2006 20:00 14.1 C 83 % 1023.8 hPa 0.0 l/m 0.7 km/h (0 Bft) O 0.00 h 0.0 UV-I 0 W/m 11.2 C 14.1 C 2.4 km/h (1 Bft)
14.10.2006 21:00 13.8 C 85 % 1024.0 hPa 0.0 l/m 0.3 km/h (0 Bft) NO 0.00 h 0.0 UV-I 0 W/m 11.3 C 13.8 C 1.0 km/h (0 Bft)
14.10.2006 22:00 13.5 C 86 % 1023.9 hPa 0.0 l/m 0.7 km/h (0 Bft) O 0.00 h 0.0 UV-I 0 W/m 11.2 C 13.5 C 2.5 km/h (1 Bft)
14.10.2006 23:00 12.7 C 89 % 1023.8 hPa 0.0 l/m 0.7 km/h (0 Bft) NO 0.00 h 0.0 UV-I 0 W/m 10.8 C 12.7 C 2.2 km/h (1 Bft)
15.10.2006 00:00 11.6 C 93 % 1023.9 hPa 0.0 l/m 0.1 km/h (0 Bft) O 0.00 h 0.0 UV-I 0 W/m 10.4 C 11.6 C 0.8 km/h (0 Bft)
15.10.2006 01:00 11.0 C 95 % 1023.5 hPa 0.0 l/m 0.1 km/h (0 Bft) O 0.00 h 0.0 UV-I 0 W/m 10.2 C 11.0 C 0.5 km/h (0 Bft)
15.10.2006 02:00 11.0 C 96 % 1023.5 hPa 0.0 l/m 0.1 km/h (0 Bft) O 0.00 h 0.0 UV-I 0 W/m 10.4 C 11.0 C 0.4 km/h (0 Bft)
15.10.2006 03:00 11.2 C 96 % 1023.5 hPa 0.0 l/m 0.6 km/h (0 Bft) O 0.00 h 0.0 UV-I 0 W/m 10.6 C 11.2 C 1.7 km/h (1 Bft)
15.10.2006 04:00 12.4 C 89 % 1023.3 hPa 0.0 l/m 1.1 km/h (0 Bft) O 0.00 h 0.0 UV-I 0 W/m 10.7 C 12.4 C 2.7 km/h (1 Bft)
15.10.2006 05:00 12.6 C 87 % 1023.6 hPa 0.0 l/m 1.5 km/h (1 Bft) O-SO 0.00 h 0.0 UV-I 0 W/m 10.5 C 12.6 C 3.8 km/h (1 Bft)
15.10.2006 06:00 12.3 C 87 % 1023.9 hPa 0.0 l/m 0.6 km/h (0 Bft) O 0.00 h 0.0 UV-I 0 W/m 10.1 C 12.3 C 2.1 km/h (1 Bft)
15.10.2006 07:00 12.0 C 88 % 1024.0 hPa 0.0 l/m 0.6 km/h (0 Bft) NO 0.00 h 0.0 UV-I 0 W/m 10.0 C 12.0 C 1.8 km/h (1 Bft)
15.10.2006 08:00 11.8 C 86 % 1024.1 hPa 0.0 l/m 2.1 km/h (1 Bft) NO 0.00 h 0.0 UV-I 15 W/m 9.6 C 11.8 C 5.3 km/h (1 Bft)
15.10.2006 09:00 11.8 C 85 % 1024.6 hPa 0.0 l/m 2.7 km/h (1 Bft) O-SO 0.00 h 0.0 UV-I 29 W/m 9.3 C 11.8 C 5.4 km/h (1 Bft)
15.10.2006 10:00 11.9 C 85 % 1025.2 hPa 0.0 l/m 1.9 km/h (1 Bft) O-SO 0.08 h 1.0 UV-I 84 W/m 9.4 C 11.9 C 4.0 km/h (1 Bft)
15.10.2006 11:00 13.1 C 81 % 1025.0 hPa 0.0 l/m 2.7 km/h (1 Bft) O-SO 0.45 h 1.8 UV-I 281 W/m 9.9 C 13.1 C 5.9 km/h (2 Bft)
15.10.2006 12:00 13.9 C 79 % 1024.7 hPa 0.0 l/m 3.1 km/h (1 Bft) O-SO 0.32 h 2.1 UV-I 290 W/m 10.4 C 13.9 C 6.1 km/h (2 Bft)
15.10.2006 13:00 15.1 C 77 % 1024.5 hPa 0.0 l/m 8.3 km/h (2 Bft) O-SO 1.00 h 2.6 UV-I 461 W/m 11.0 C 15.1 C 13.0 km/h (3 Bft)
15.10.2006 14:00 15.9 C 74 % 1024.0 hPa 0.0 l/m 5.2 km/h (1 Bft) O-SO 0.85 h 2.3 UV-I 429 W/m 11.2 C 15.9 C 9.0 km/h (2 Bft)
15.10.2006 15:00 15.8 C 72 % 1023.9 hPa 0.0 l/m 4.0 km/h (1 Bft) O 0.75 h 1.6 UV-I 295 W/m 10.8 C 15.8 C 8.0 km/h (2 Bft)
15.10.2006 16:00 15.6 C 73 % 1023.8 hPa 0.0 l/m 3.1 km/h (1 Bft) O 0.30 h 0.9 UV-I 162 W/m 10.9 C 15.6 C 7.0 km/h (2 Bft)
15.10.2006 17:00 14.7 C 76 % 1023.9 hPa 0.0 l/m 2.5 km/h (1 Bft) O-SO 0.22 h 0.5 UV-I 73 W/m 10.5 C 14.7 C 5.7 km/h (1 Bft)
15.10.2006 18:00 13.4 C 80 % 1024.3 hPa 0.0 l/m 1.9 km/h (1 Bft) N-NO 0.03 h 0.0 UV-I 19 W/m 10.1 C 13.4 C 4.5 km/h (1 Bft)
15.10.2006 19:00 12.8 C 82 % 1024.8 hPa 0.0 l/m 2.2 km/h (1 Bft) NO 0.00 h 0.0 UV-I 0 W/m 9.8 C 12.8 C 5.5 km/h (1 Bft)
15.10.2006 20:00 11.9 C 85 % 1025.2 hPa 0.0 l/m 1.2 km/h (1 Bft) NO 0.00 h 0.0 UV-I 0 W/m 9.4 C 11.9 C 3.3 km/h (1 Bft)
15.10.2006 21:00 11.2 C 86 % 1025.5 hPa 0.0 l/m 1.3 km/h (1 Bft) N-NO 0.00 h 0.0 UV-I 0 W/m 8.9 C 11.2 C 3.7 km/h (1 Bft)
15.10.2006 22:00 11.7 C 85 % 1025.3 hPa 0.0 l/m 1.3 km/h (1 Bft) N-NO 0.00 h 0.0 UV-I 0 W/m 9.3 C 11.7 C 3.3 km/h (1 Bft)
15.10.2006 23:00 11.7 C 85 % 1025.1 hPa 0.0 l/m 0.2 km/h (0 Bft) N-NO 0.00 h 0.0 UV-I 0 W/m 9.3 C 11.7 C 0.6 km/h (0 Bft)
Min-Datum _ 09.10.06 09.10.06 11.10.06 - 09.10.06 - - - - 09.10.06 09.10.06 09.10.06
_ Min-Zeit 01:58 15:49 16:30 - 00:00 - - - - 01:58 05:31 00:00
Minimum _ 6.5 C 59 % 1014.3 hPa - 0.0 km/h (0 Bft) - - - - 6.4 C 6.1 C 0.0 km/h (0 Bft)
Max-Datum _ 12.10.06 09.10.06 13.10.06 09.10.06 14.10.06 - 09.10.06 09.10.06 09.10.06 13.10.06 12.10.06 14.10.06
_ Max-Zeit 16:21 01:46 09:45 05:15 13:01 - 10:53 12:58 11:56 15:04 16:21 13:01
Maximum _ 20.2 C 100 % 1028.0 hPa 0.2 l/m 16.7 km/h
O-SO (3 Bft)
- 0.02 h 3.8 UV-I 601 W/m 15.6 C 20.2 C 23.4 km/h
O-SO (4 Bft)
Durchschnitt _ 13.1 C 90 % 1022.1 hPa #0.8 l/m 1.4 km/h (1 Bft) O-SO #24:43 h 1.5 UV-I 178 W/m 11.4 C 13.1 C 3.0 km/h (1 Bft)
© Kaiko 2006